LDDU/DBV METAR and TAF weather

Enter ICAO airport designator
Station Type Date Time Source
LDDU METAR 2021/05/07 01:00 UTC NOAA

LDDU 070100Z 08009KT CAVOK 15/08 Q1014


Station Type Date Time Source
LDDU Decoded METAR 2021/05/07 01:00 UTC NOAA

Dubrovnik / Cilipi, Croatia (LDDU) 42-34N 018-16E 165M
May 06, 2021 - 09:00 PM EDT / 2021.05.07 0100 UTC
Wind: from the E (080 degrees) at 10 MPH (9 KT):0
Visibility: greater than 7 mile(s):0
Temperature: 59 F (15 C)
Dew Point: 46 F (8 C)
Relative Humidity: 62%
Pressure (altimeter): 29.94 in. Hg (1014 hPa)
ob: LDDU 070100Z 08009KT CAVOK 15/08 Q1014
cycle: 1

Station Type Date Time Source
LDDU TAF 2021/05/06 18:27 UTC NOAA

TAF TAF LDDU 061725Z 0618/0718 09008KT CAVOK TX21/0711Z TN14/0704Z
BECMG 0707/0709 15012KT

Example: see airport list